Currently 76°F in Hemet, California, USA
76°F
76°F / 64°F
1 mph W
0.00"
Tuesday, August 22, 2017 9:42 AM PDT

Hemet, California Weather Summary
Last 36 Hours

Temperature Winds Hourly Humidity Dewpoint
Time Report Norm Report Norm Max Gusts Precip. Rpt. Norm Rpt. Norm Pressure
1,2Tue 09:42 AM  76.1°F  78°F  1 mph W  calm  5 mph  0.00"  41%  43%  50°F  53°F  30.05"
Tue 09:00 AM  73.6°F  75°F  calm  calm  none  0.00"  45%  49%  50°F  54°F  30.04"
Tue 08:00 AM  67.3°F  72°F  calm  calm  none  0.00"  53%  52%  49°F  53°F  30.04"
Tue 07:00 AM  66.6°F  68°F  calm  calm  none  0.00"  45%  53%  44°F  50°F  30.02"
Tue 06:00 AM  65.1°F  68°F  calm  calm  none  0.00"  67%  53%  53°F  49°F  30.01"
Tue 05:00 AM  65.7°F  68°F  calm  calm  none  0.00"  66%  53%  54°F  50°F  30.00"
3Tue 04:17 AM  64.2°F  68°F  calm  calm  none  ----  69%  53%  53°F  50°F  30.00"
Tue 04:00 AM  64.9°F  68°F  calm  calm  none  0.00"  69%  53%  54°F  50°F  30.00"
Tue 03:00 AM  65.8°F  69°F  calm  calm  none  0.00"  63%  53%  52°F  50°F  30.00"
Tue 02:00 AM  67.1°F  70°F  calm  calm  none  0.00"  58%  52%  51°F  50°F  30.01"
Tue 01:00 AM  67.6°F  70°F  calm  calm  none  0.00"  50%  50%  48°F  50°F  30.02"
Tue 12:00 AM  69.1°F  72°F  calm  calm  none  0.00"  48%  49%  48°F  50°F  30.03"
Mon 11:00 PM  70.2°F  73°F  calm  calm  none  0.00"  46%  47%  48°F  51°F  30.04"
Mon 10:00 PM  72.9°F  75°F  calm  calm  none  0.00"  45%  44%  50°F  51°F  30.04"
Mon 09:00 PM  75.4°F  78°F  calm  calm  none  0.00"  43%  40%  51°F  51°F  30.02"
Mon 08:00 PM  79.5°F  81°F  calm  1 mph  none  0.00"  33%  36%  47°F  50°F  30.01"
Mon 07:00 PM  83.7°F  86°F  calm  1 mph  8 mph  0.00"  26%  31%  44°F  50°F  29.99"
Mon 06:00 PM  87.4°F  90°F  5 mph SW  3 mph  13 mph  0.00"  24%  27%  45°F  50°F  29.99"
Mon 05:00 PM  88.3°F  92°F  5 mph SW  3 mph  12 mph  0.00"  27%  25%  49°F  50°F  29.99"
Mon 04:00 PM  88.3°F  93°F  5 mph SW  3 mph  12 mph  0.00"  24%  23%  46°F  49°F  29.99"
Mon 03:00 PM  88.2°F  93°F  7 mph W  3 mph  12 mph  0.00"  23%  23%  44°F  49°F  30.01"
Mon 02:00 PM  85.5°F  93°F  2 mph W  3 mph  9 mph  0.00"  26%  23%  45°F  48°F  30.03"
Mon 01:00 PM  81.7°F  91°F  3 mph W  2 mph  8 mph  0.00"  34%  25%  50°F  49°F  30.03"
Mon 12:00 PM  75.9°F  88°F  5 mph W  1 mph  9 mph  0.00"  44%  29%  52°F  51°F  30.03"
Mon 11:00 AM  69.8°F  84°F  calm  1 mph  none  0.00"  62%  35%  56°F  52°F  30.04"
Mon 10:00 AM  67.8°F  79°F  calm  calm  none  0.00"  65%  41%  55°F  53°F  30.04"
Mon 09:00 AM  63.5°F  75°F  calm  calm  none  0.00"  72%  49%  54°F  54°F  30.03"
Mon 08:00 AM  59.2°F  72°F  calm  calm  none  0.00"  81%  52%  53°F  52°F  30.03"
Mon 07:00 AM  57.7°F  68°F  calm  calm  none  0.00"  80%  53%  51°F  49°F  30.01"
Mon 06:00 AM  57.6°F  68°F  calm  calm  none  0.00"  83%  53%  52°F  49°F  29.99"
Mon 05:00 AM  57.7°F  68°F  calm  calm  none  0.00"  82%  53%  52°F  49°F  29.98"
Mon 04:00 AM  58.6°F  68°F  calm  calm  none  0.00"  81%  53%  53°F  50°F  29.99"
Mon 03:00 AM  60.1°F  69°F  calm  calm  none  0.00"  81%  53%  54°F  50°F  29.99"
Mon 02:00 AM  61.0°F  69°F  calm  calm  none  0.00"  79%  51%  54°F  50°F  29.99"
Mon 01:00 AM  62.1°F  70°F  calm  calm  none  0.00"  77%  50%  55°F  50°F  29.99"
Mon 12:00 AM  63.1°F  71°F  calm  calm  none  0.00"  75%  49%  55°F  50°F  29.99"
Sun 11:00 PM  64.8°F  73°F  calm  calm  none  0.00"  72%  47%  55°F  51°F  29.99"
Sun 10:00 PM  66.6°F  75°F  calm  calm  none  0.00"  68%  44%  55°F  51°F  29.99"

  1. Current weather data. No green row appears if the current weather data is also the high or low for the current day.
  2. High temperature for the current day.
  3. Low temperature for the current day.

The Hemet weather pages are a service of WeatherCurrents. Hemet, California is located in the San Jacinto Valley, in western Riverside County, at the foot of the San Jacinto mountains.
Copyright ©Tue Aug 22 09:44:00 PDT 2017  WeatherCurrents. All rights reserved. - Submit questions and comments - Privacy Policy

This page automatically refreshes every 10 minutes.